Time;durP1;ratioP1;P1;durP2;ratioP2;P2;SDS_P1;SDS_P2;PMS_P1;PMS_P2;Temp;Humidity;BMP_temperature;BMP_pressure;BME280_temperature;BME280_humidity;BME280_pressure;Samples;Min_cycle;Max_cycle;Signal;HPM_P1;HPM_P2
2021/12/23 00:01:24;;;;;;;27.15;16.38;;;0.70;99.90;;;;;;5076496;28;20044;-69
2021/12/23 00:03:50;;;;;;;32.85;17.55;;;0.70;99.90;;;;;;5077009;28;20079;-69
2021/12/23 00:06:16;;;;;;;29.73;17.80;;;0.70;99.90;;;;;;5076908;28;20133;-69
2021/12/23 00:08:42;;;;;;;28.83;17.35;;;0.70;99.90;;;;;;5077007;28;20304;-69
2021/12/23 00:11:08;;;;;;;30.60;18.35;;;0.60;99.90;;;;;;5076993;28;20025;-69
2021/12/23 00:13:36;;;;;;;32.03;18.75;;;0.60;99.90;;;;;;5043003;28;20032;-68
2021/12/23 00:16:16;;;;;;;30.75;19.08;;;0.50;99.90;;;;;;5076416;28;20100;-68
2021/12/23 00:18:47;;;;;;;32.28;18.52;;;0.50;99.90;;;;;;5075967;28;20406;-69
2021/12/23 00:24:00;;;;;;;34.40;20.33;;;0.40;99.90;;;;;;5076789;28;20107;-69
2021/12/23 00:26:26;;;;;;;34.75;19.92;;;0.40;99.90;;;;;;5076904;28;20098;-69
2021/12/23 00:28:53;;;;;;;38.97;22.15;;;0.40;99.90;;;;;;5076665;28;20135;-69
2021/12/23 00:31:19;;;;;;;36.42;21.95;;;0.50;99.90;;;;;;5075991;28;20086;-69
2021/12/23 00:33:45;;;;;;;41.38;23.75;;;0.40;99.90;;;;;;5076711;28;20330;-69
2021/12/23 00:36:12;;;;;;;42.38;23.30;;;0.40;99.90;;;;;;5059028;28;20052;-69
2021/12/23 00:38:57;;;;;;;42.88;24.40;;;0.40;99.90;;;;;;5076538;28;20123;-69
2021/12/23 00:41:28;;;;;;;47.35;24.55;;;0.40;99.90;;;;;;5075784;28;20342;-69
2021/12/23 00:43:54;;;;;;;44.80;25.17;;;0.50;99.90;;;;;;5075917;28;20072;-68
2021/12/23 00:46:19;;;;;;;45.00;24.80;;;0.40;99.90;;;;;;5078346;28;20431;-69
2021/12/23 00:48:45;;;;;;;44.50;25.23;;;0.30;99.90;;;;;;5080495;28;20036;-70
2021/12/23 00:51:13;;;;;;;45.25;25.88;;;0.30;99.90;;;;;;5080653;28;20274;-69
2021/12/23 00:53:40;;;;;;;45.63;25.17;;;0.30;99.90;;;;;;5080602;28;20170;-69
2021/12/23 00:56:09;;;;;;;49.05;25.85;;;0.30;99.90;;;;;;5079578;28;20033;-69
2021/12/23 00:58:35;;;;;;;51.70;26.65;;;0.30;99.90;;;;;;5080421;28;20114;-70
2021/12/23 01:01:01;;;;;;;47.97;26.50;;;0.30;99.90;;;;;;5079633;28;20044;-70
2021/12/23 01:03:28;;;;;;;50.65;26.60;;;0.30;99.90;;;;;;5062890;28;20029;-69
2021/12/23 01:05:54;;;;;;;48.40;25.50;;;0.40;99.90;;;;;;5080261;28;20036;-69
2021/12/23 01:08:20;;;;;;;54.80;27.13;;;0.30;99.90;;;;;;5080117;28;20032;-69
2021/12/23 01:10:49;;;;;;;51.88;27.73;;;0.30;99.90;;;;;;5079502;28;20427;-69
2021/12/23 01:13:18;;;;;;;52.83;26.45;;;0.40;99.90;;;;;;5080379;28;20023;-70
2021/12/23 01:16:26;;;;;;;52.85;27.08;;;0.50;99.90;;;;;;5079796;28;20033;-69
2021/12/23 01:18:53;;;;;;;42.53;21.45;;;0.50;99.90;;;;;;5077899;28;20083;-69
2021/12/23 01:21:19;;;;;;;54.13;27.95;;;0.50;99.90;;;;;;5079989;28;20090;-69
2021/12/23 01:23:53;;;;;;;55.25;26.77;;;0.40;99.90;;;;;;5079266;28;20031;-69
2021/12/23 01:26:22;;;;;;;52.92;26.60;;;0.30;99.90;;;;;;5079277;28;20037;-70
2021/12/23 01:28:52;;;;;;;56.03;28.20;;;0.30;99.90;;;;;;5079762;28;20051;-69
2021/12/23 01:31:18;;;;;;;55.97;27.98;;;0.30;99.90;;;;;;5079811;28;20450;-69
2021/12/23 01:33:45;;;;;;;57.33;27.65;;;0.50;99.90;;;;;;5062376;28;20036;-70
2021/12/23 01:36:11;;;;;;;60.60;28.85;;;0.60;99.90;;;;;;5078844;28;20427;-70
2021/12/23 01:38:37;;;;;;;55.65;26.95;;;0.70;99.90;;;;;;5079699;28;20028;-70
2021/12/23 01:41:03;;;;;;;56.08;27.67;;;0.60;99.90;;;;;;5079286;28;20048;-70
2021/12/23 01:43:29;;;;;;;53.00;26.13;;;0.50;99.90;;;;;;5078769;28;20123;-69
2021/12/23 01:45:55;;;;;;;55.22;26.85;;;0.40;99.90;;;;;;5045508;28;20060;-69
2021/12/23 01:48:21;;;;;;;59.22;27.63;;;0.40;99.90;;;;;;5078644;28;20036;-69
2021/12/23 01:50:47;;;;;;;60.63;27.80;;;0.30;99.90;;;;;;5062710;28;20040;-70
2021/12/23 01:53:13;;;;;;;57.00;27.80;;;0.40;99.90;;;;;;5079580;28;20043;-70
2021/12/23 01:55:42;;;;;;;58.55;27.05;;;0.50;99.90;;;;;;5079360;28;20130;-69
2021/12/23 01:58:10;;;;;;;57.28;26.02;;;0.50;99.90;;;;;;5078764;28;20403;-70
2021/12/23 02:00:37;;;;;;;58.75;28.58;;;0.40;99.90;;;;;;5079232;28;20086;-70
2021/12/23 02:03:05;;;;;;;58.97;27.63;;;0.50;99.90;;;;;;5078401;28;20029;-70
2021/12/23 02:05:31;;;;;;;57.10;27.23;;;0.60;99.90;;;;;;5078450;28;20041;-70
2021/12/23 02:07:58;;;;;;;58.17;28.02;;;0.50;99.90;;;;;;5079060;28;20086;-69
2021/12/23 02:10:25;;;;;;;58.22;26.85;;;0.50;99.90;;;;;;5078265;28;20252;-69
2021/12/23 02:12:51;;;;;;;62.72;27.40;;;0.50;99.90;;;;;;5079038;28;20039;-69
2021/12/23 02:15:18;;;;;;;58.53;26.45;;;0.40;99.90;;;;;;5078926;28;20024;-69
2021/12/23 02:17:45;;;;;;;57.30;26.50;;;0.30;99.90;;;;;;5078150;28;20025;-69
2021/12/23 02:20:14;;;;;;;60.38;26.98;;;0.40;99.90;;;;;;5078981;28;20028;-69
2021/12/23 02:22:41;;;;;;;61.72;28.23;;;0.40;99.90;;;;;;5078842;28;20296;-70
2021/12/23 02:25:09;;;;;;;57.40;27.73;;;0.50;99.90;;;;;;5078875;28;20319;-69
2021/12/23 02:27:34;;;;;;;59.95;27.30;;;0.50;99.90;;;;;;5078725;28;20060;-70
2021/12/23 02:30:05;;;;;;;57.95;27.73;;;0.60;99.90;;;;;;5077947;28;20068;-69
2021/12/23 02:32:31;;;;;;;59.22;27.55;;;0.50;99.90;;;;;;5078688;28;20109;-69
2021/12/23 02:34:57;;;;;;;58.55;28.00;;;0.40;99.90;;;;;;5078542;28;20082;-70
2021/12/23 02:37:22;;;;;;;61.03;27.63;;;0.50;99.90;;;;;;5077777;28;20042;-70
2021/12/23 02:39:48;;;;;;;63.75;27.60;;;0.50;99.90;;;;;;5077902;28;20043;-69
2021/12/23 02:42:14;;;;;;;64.80;28.20;;;0.50;99.90;;;;;;5078456;28;20486;-70
2021/12/23 02:44:40;;;;;;;63.40;28.25;;;0.50;99.90;;;;;;5077789;28;20037;-70
2021/12/23 02:47:06;;;;;;;65.35;28.27;;;0.60;99.90;;;;;;5077676;28;20040;-69
2021/12/23 02:49:32;;;;;;;59.15;26.85;;;0.80;99.90;;;;;;5077528;28;20334;-69
2021/12/23 02:51:58;;;;;;;60.47;27.48;;;0.80;99.90;;;;;;5078353;28;20086;-69
2021/12/23 02:54:24;;;;;;;59.08;26.77;;;0.80;99.90;;;;;;5078122;28;20040;-69
2021/12/23 02:56:50;;;;;;;60.08;27.38;;;0.70;99.90;;;;;;5077320;28;20086;-69
2021/12/23 02:59:15;;;;;;;63.05;27.83;;;0.70;99.90;;;;;;5060735;28;20044;-69
2021/12/23 03:01:41;;;;;;;62.75;27.83;;;0.70;99.90;;;;;;5077658;28;20063;-69
2021/12/23 03:04:07;;;;;;;59.60;28.08;;;0.80;99.90;;;;;;5077280;28;20048;-69
2021/12/23 03:06:33;;;;;;;62.20;27.45;;;0.80;99.90;;;;;;5060735;28;20036;-68
2021/12/23 03:09:03;;;;;;;61.65;27.38;;;0.70;99.90;;;;;;5076167;28;20029;-69
2021/12/23 03:11:31;;;;;;;62.88;28.55;;;0.60;99.90;;;;;;5077077;28;20307;-69
2021/12/23 03:13:58;;;;;;;62.75;28.92;;;0.50;99.90;;;;;;5077803;28;20031;-69
2021/12/23 03:16:27;;;;;;;68.05;28.67;;;0.50;99.90;;;;;;5060647;28;20067;-68
2021/12/23 03:18:53;;;;;;;63.05;27.85;;;0.50;99.90;;;;;;5077733;28;20052;-69
2021/12/23 03:21:19;;;;;;;63.30;27.58;;;0.40;99.90;;;;;;5060283;28;20056;-70
2021/12/23 03:23:45;;;;;;;62.15;27.45;;;0.30;99.90;;;;;;5077075;28;20032;-68
2021/12/23 03:26:11;;;;;;;64.68;28.85;;;0.30;99.90;;;;;;5077814;28;20032;-69
2021/12/23 03:28:38;;;;;;;69.60;30.38;;;0.40;99.90;;;;;;5060100;28;20029;-68
2021/12/23 03:31:04;;;;;;;67.07;29.00;;;0.40;99.90;;;;;;5076759;28;20033;-69
2021/12/23 03:33:30;;;;;;;69.68;29.60;;;0.40;99.90;;;;;;5077447;28;20020;-69
2021/12/23 03:35:56;;;;;;;68.22;29.63;;;0.50;99.90;;;;;;5077229;28;20044;-69
2021/12/23 03:38:24;;;;;;;68.95;30.98;;;0.60;99.90;;;;;;5076570;28;20303;-68
2021/12/23 03:40:50;;;;;;;69.80;29.40;;;0.60;99.90;;;;;;5076502;28;20051;-69
2021/12/23 03:43:17;;;;;;;70.57;29.20;;;0.50;99.90;;;;;;5077195;28;20036;-69
2021/12/23 03:45:45;;;;;;;67.60;29.17;;;0.40;99.90;;;;;;5076502;28;20131;-68
2021/12/23 03:48:12;;;;;;;65.82;29.05;;;0.30;99.90;;;;;;5077360;28;20071;-69
2021/12/23 03:50:37;;;;;;;63.17;27.58;;;0.30;99.90;;;;;;5077189;28;20031;-69
2021/12/23 03:53:03;;;;;;;66.40;27.33;;;0.30;99.90;;;;;;5077061;28;20032;-68
2021/12/23 03:55:29;;;;;;;64.88;27.77;;;0.30;99.90;;;;;;5059935;28;20380;-68
2021/12/23 03:57:55;;;;;;;64.68;27.45;;;0.30;99.90;;;;;;5076527;28;20462;-68
2021/12/23 04:00:22;;;;;;;65.78;26.92;;;0.40;99.90;;;;;;5076365;28;20036;-69
2021/12/23 04:02:49;;;;;;;65.65;27.30;;;0.40;99.90;;;;;;5076203;28;20032;-68
2021/12/23 04:05:16;;;;;;;61.28;25.70;;;0.40;99.90;;;;;;5076978;28;20032;-68
2021/12/23 04:07:43;;;;;;;60.28;26.05;;;0.40;99.90;;;;;;5076977;28;20044;-69
2021/12/23 04:10:12;;;;;;;59.88;26.52;;;0.40;99.90;;;;;;5076829;28;20090;-69
2021/12/23 04:12:38;;;;;;;59.05;26.13;;;0.50;99.90;;;;;;5076914;28;20423;-68
2021/12/23 04:15:05;;;;;;;61.42;25.75;;;0.60;99.90;;;;;;5059364;28;20025;-69
2021/12/23 04:17:30;;;;;;;60.55;26.90;;;0.50;99.90;;;;;;5076019;28;20049;-69
2021/12/23 04:20:09;;;;;;;62.92;25.52;;;0.60;99.90;;;;;;5076562;28;20070;-70
2021/12/23 04:22:35;;;;;;;54.03;24.45;;;0.60;99.90;;;;;;5076904;28;20119;-69
2021/12/23 04:25:02;;;;;;;56.90;25.05;;;0.60;99.90;;;;;;5076044;28;20051;-69
2021/12/23 04:27:28;;;;;;;56.88;23.23;;;0.70;99.90;;;;;;5076117;28;20036;-69
2021/12/23 04:29:53;;;;;;;57.63;24.42;;;0.70;99.90;;;;;;5076664;28;20032;-69
2021/12/23 04:32:19;;;;;;;55.00;24.25;;;0.70;99.90;;;;;;5075974;28;20032;-68
2021/12/23 04:34:45;;;;;;;53.28;24.50;;;0.60;99.90;;;;;;5059209;28;20059;-68
2021/12/23 04:37:13;;;;;;;58.17;24.67;;;0.50;99.90;;;;;;5076573;28;20085;-69
2021/12/23 04:39:40;;;;;;;58.40;24.05;;;0.50;99.90;;;;;;5077178;28;20112;-68
2021/12/23 04:42:06;;;;;;;53.50;24.13;;;0.50;99.90;;;;;;5076807;28;20035;-69
2021/12/23 04:44:31;;;;;;;57.70;25.08;;;0.60;99.90;;;;;;5076623;28;20025;-68
2021/12/23 04:46:57;;;;;;;54.95;24.35;;;0.60;99.90;;;;;;5076541;28;20093;-68
2021/12/23 04:49:23;;;;;;;52.72;23.33;;;0.60;99.90;;;;;;5059227;28;20292;-69
2021/12/23 04:51:49;;;;;;;51.55;23.80;;;0.70;99.90;;;;;;5059208;28;20045;-70
2021/12/23 04:54:15;;;;;;;56.90;23.90;;;0.70;99.90;;;;;;5075735;28;20040;-69
2021/12/23 04:56:41;;;;;;;54.35;23.35;;;0.60;99.90;;;;;;5077142;28;20351;-69
2021/12/23 04:59:07;;;;;;;53.75;24.17;;;0.60;99.90;;;;;;5076515;28;20049;-70
2021/12/23 05:01:33;;;;;;;53.03;23.77;;;0.70;99.90;;;;;;5076595;28;20032;-69
2021/12/23 05:03:59;;;;;;;49.38;22.63;;;0.70;99.90;;;;;;5076508;28;20029;-70
2021/12/23 05:06:25;;;;;;;51.33;23.25;;;0.70;99.90;;;;;;5076415;28;20064;-70
2021/12/23 05:08:51;;;;;;;53.33;22.85;;;0.90;99.90;;;;;;5076298;28;20391;-70
2021/12/23 05:11:17;;;;;;;49.53;22.40;;;1.10;99.90;;;;;;5076302;28;20032;-69
2021/12/23 05:13:47;;;;;;;54.47;22.70;;;1.10;99.90;;;;;;5076304;28;20388;-69
2021/12/23 05:16:15;;;;;;;50.80;21.73;;;0.90;99.90;;;;;;5076357;28;20082;-70
2021/12/23 05:18:40;;;;;;;48.92;22.58;;;0.90;99.90;;;;;;5076455;28;20106;-69
2021/12/23 05:21:07;;;;;;;47.28;22.13;;;0.90;99.90;;;;;;5076283;28;20327;-70
2021/12/23 05:23:33;;;;;;;53.00;22.25;;;1.00;99.90;;;;;;5076262;28;20260;-70
2021/12/23 05:25:59;;;;;;;49.35;22.60;;;1.00;99.90;;;;;;5058963;28;20028;-70
2021/12/23 05:28:25;;;;;;;45.42;21.05;;;1.00;99.90;;;;;;5076157;28;20299;-69
2021/12/23 05:30:51;;;;;;;47.58;21.33;;;1.00;99.90;;;;;;5076453;28;20315;-69
2021/12/23 05:33:17;;;;;;;47.63;21.90;;;0.90;99.90;;;;;;5078570;28;20024;-70
2021/12/23 05:35:43;;;;;;;50.58;22.35;;;0.90;99.90;;;;;;5079679;28;20108;-70
2021/12/23 05:38:09;;;;;;;49.15;21.52;;;0.90;99.90;;;;;;5079711;28;20032;-70
2021/12/23 05:40:35;;;;;;;49.78;22.67;;;1.10;99.90;;;;;;5079720;28;20101;-70
2021/12/23 05:43:03;;;;;;;50.08;22.58;;;1.20;99.90;;;;;;5078990;28;20033;-70
2021/12/23 05:45:29;;;;;;;52.17;22.25;;;1.20;99.90;;;;;;5079764;28;20098;-70
2021/12/23 05:47:55;;;;;;;49.97;21.48;;;1.10;99.90;;;;;;5078797;28;20041;-70
2021/12/23 05:50:23;;;;;;;49.15;22.25;;;1.10;99.90;;;;;;5079578;28;20296;-70
2021/12/23 05:52:50;;;;;;;51.30;22.38;;;1.10;99.90;;;;;;5078755;28;20056;-69
2021/12/23 05:55:17;;;;;;;46.53;21.10;;;1.20;99.90;;;;;;5080067;28;20029;-70
2021/12/23 05:57:43;;;;;;;46.63;20.90;;;1.30;99.90;;;;;;5079400;28;20021;-70
2021/12/23 06:00:19;;;;;;;50.25;21.95;;;1.40;99.90;;;;;;5079398;28;20032;-70
2021/12/23 06:02:46;;;;;;;43.67;21.05;;;1.40;99.90;;;;;;5079283;28;20054;-70
2021/12/23 06:05:13;;;;;;;46.40;20.88;;;1.40;99.90;;;;;;5061832;28;20040;-70
2021/12/23 06:07:39;;;;;;;43.53;21.50;;;1.60;99.90;;;;;;5078517;28;20024;-70
2021/12/23 06:10:06;;;;;;;44.78;21.80;;;1.70;99.90;;;;;;5078383;28;20036;-70
2021/12/23 06:12:32;;;;;;;45.83;20.67;;;1.70;99.90;;;;;;5078326;28;20360;-69
2021/12/23 06:14:58;;;;;;;45.03;21.88;;;1.50;99.90;;;;;;5079081;28;20029;-70
2021/12/23 06:17:23;;;;;;;43.90;21.50;;;1.40;99.90;;;;;;5061515;28;20036;-69
2021/12/23 06:19:49;;;;;;;45.38;21.90;;;1.40;99.90;;;;;;5079055;28;20024;-69
2021/12/23 06:22:17;;;;;;;49.05;22.10;;;1.30;99.90;;;;;;5078219;28;20056;-70
2021/12/23 06:24:45;;;;;;;47.58;21.65;;;1.30;99.90;;;;;;5062056;28;20033;-69
2021/12/23 06:27:11;;;;;;;48.33;22.77;;;1.20;99.90;;;;;;5078049;28;20048;-69
2021/12/23 06:29:37;;;;;;;45.63;21.55;;;1.10;99.90;;;;;;5045026;28;20047;-69
2021/12/23 06:32:04;;;;;;;46.90;21.17;;;1.20;99.90;;;;;;5078809;28;20024;-69
2021/12/23 06:34:29;;;;;;;47.53;22.92;;;1.10;99.90;;;;;;5061132;28;20131;-70
2021/12/23 06:36:55;;;;;;;47.53;22.45;;;1.00;99.90;;;;;;5077995;28;20071;-70
2021/12/23 06:39:21;;;;;;;47.33;21.52;;;1.00;99.90;;;;;;5077845;28;20047;-70
2021/12/23 06:41:47;;;;;;;46.35;22.17;;;0.90;99.90;;;;;;5061331;28;20086;-70
2021/12/23 06:44:13;;;;;;;49.00;22.55;;;1.10;99.90;;;;;;5077694;28;20036;-69
2021/12/23 06:46:39;;;;;;;46.50;22.40;;;1.30;99.90;;;;;;5077767;28;20383;-69
2021/12/23 06:49:14;;;;;;;47.95;22.15;;;1.40;99.90;;;;;;5078289;28;20029;-69
2021/12/23 06:51:41;;;;;;;49.72;23.17;;;1.30;99.90;;;;;;5078779;28;20051;-69
2021/12/23 06:54:09;;;;;;;49.28;21.77;;;1.20;99.90;;;;;;5077643;28;20029;-69
2021/12/23 06:56:35;;;;;;;48.53;22.20;;;1.30;99.90;;;;;;5078256;28;20024;-69
2021/12/23 06:59:01;;;;;;;45.42;21.27;;;1.40;99.90;;;;;;5078159;28;20097;-69
2021/12/23 07:01:27;;;;;;;47.92;22.45;;;1.40;99.90;;;;;;5078470;28;20313;-69
2021/12/23 07:06:38;;;;;;;49.75;21.30;;;1.40;99.90;;;;;;5063505;28;20076;-70
2021/12/23 07:09:05;;;;;;;41.08;19.15;;;1.40;99.90;;;;;;5077955;28;20079;-66
2021/12/23 07:11:32;;;;;;;47.42;22.13;;;2.10;99.90;;;;;;5078381;28;20020;-69
2021/12/23 07:13:58;;;;;;;47.20;21.98;;;2.10;99.90;;;;;;5077269;28;20024;-69
2021/12/23 07:16:23;;;;;;;44.67;21.45;;;2.00;99.90;;;;;;5078021;28;20090;-68
2021/12/23 07:18:49;;;;;;;50.40;21.90;;;1.80;99.90;;;;;;5077231;28;20036;-68
2021/12/23 07:21:15;;;;;;;45.63;21.80;;;1.70;99.90;;;;;;5077006;28;20415;-69
2021/12/23 07:23:41;;;;;;;44.38;20.73;;;1.60;99.90;;;;;;5077758;28;20064;-69
2021/12/23 07:26:07;;;;;;;47.03;21.25;;;1.80;99.90;;;;;;5077200;28;20070;-68
2021/12/23 07:28:33;;;;;;;46.83;22.80;;;1.90;99.90;;;;;;5077903;28;20039;-69
2021/12/23 07:30:59;;;;;;;46.95;22.67;;;2.00;99.90;;;;;;5076941;28;20043;-67
2021/12/23 07:33:24;;;;;;;48.72;23.25;;;2.00;99.90;;;;;;5076914;28;20028;-69
2021/12/23 07:35:50;;;;;;;46.13;21.73;;;2.10;99.90;;;;;;5077678;28;20041;-68
2021/12/23 07:38:17;;;;;;;44.10;22.02;;;2.30;99.90;;;;;;5077454;28;20025;-69
2021/12/23 07:40:43;;;;;;;45.67;21.63;;;2.30;99.90;;;;;;5077535;28;20119;-69
2021/12/23 07:43:21;;;;;;;44.58;21.83;;;2.30;99.90;;;;;;5077340;28;20045;-69
2021/12/23 07:45:47;;;;;;;42.47;20.00;;;2.30;99.90;;;;;;5077585;28;20040;-69
2021/12/23 07:48:13;;;;;;;45.00;21.30;;;2.30;99.90;;;;;;5077350;28;20047;-71
2021/12/23 07:50:42;;;;;;;45.88;22.35;;;2.30;99.90;;;;;;5076741;28;20028;-69
2021/12/23 07:53:08;;;;;;;48.38;22.55;;;2.50;99.90;;;;;;5077298;28;20303;-69
2021/12/23 07:55:34;;;;;;;47.60;23.10;;;2.60;99.90;;;;;;5059456;28;20036;-70
2021/12/23 07:58:00;;;;;;;46.47;21.85;;;2.80;99.90;;;;;;5077252;28;20032;-70
2021/12/23 08:00:29;;;;;;;44.70;22.48;;;2.80;99.90;;;;;;5077286;28;20388;-70
2021/12/23 08:02:55;;;;;;;45.97;22.88;;;2.80;99.90;;;;;;5077360;28;20098;-69
2021/12/23 08:05:20;;;;;;;41.97;21.40;;;3.00;99.90;;;;;;5059545;28;20075;-69
2021/12/23 08:07:46;;;;;;;48.05;21.90;;;3.10;99.90;;;;;;5076266;28;20033;-69
2021/12/23 08:10:12;;;;;;;50.65;23.42;;;3.10;99.90;;;;;;5077071;28;20288;-69
2021/12/23 08:12:38;;;;;;;45.67;22.23;;;3.20;99.90;;;;;;5077536;28;20039;-70
2021/12/23 08:15:05;;;;;;;46.22;22.65;;;3.20;99.90;;;;;;5076362;28;20178;-69
2021/12/23 08:17:31;;;;;;;46.80;22.88;;;3.20;99.90;;;;;;5076755;28;20028;-68
2021/12/23 08:19:57;;;;;;;46.55;22.27;;;3.20;99.90;;;;;;5077030;28;20039;-69
2021/12/23 08:22:22;;;;;;;43.53;21.60;;;3.30;99.90;;;;;;5076915;28;20185;-69
2021/12/23 08:24:48;;;;;;;43.85;22.33;;;3.30;99.90;;;;;;5076186;28;20032;-69
2021/12/23 08:27:14;;;;;;;44.50;23.25;;;3.40;99.90;;;;;;5077322;28;20055;-69
2021/12/23 08:29:40;;;;;;;47.45;22.48;;;3.40;99.90;;;;;;5076135;28;20415;-68
2021/12/23 08:32:06;;;;;;;44.10;20.48;;;3.50;99.90;;;;;;5076933;28;20033;-70
2021/12/23 08:34:34;;;;;;;44.42;22.08;;;3.40;99.90;;;;;;5076726;28;20033;-69
2021/12/23 08:37:00;;;;;;;40.30;21.38;;;3.30;99.90;;;;;;5076288;28;20029;-70
2021/12/23 08:39:26;;;;;;;44.17;22.75;;;3.30;99.90;;;;;;5059466;28;20050;-69
2021/12/23 08:41:52;;;;;;;44.35;22.25;;;3.30;99.90;;;;;;5060130;28;20299;-69
2021/12/23 08:44:18;;;;;;;46.40;23.15;;;3.30;99.90;;;;;;5076594;28;20024;-70
2021/12/23 08:46:44;;;;;;;47.28;22.23;;;3.40;99.90;;;;;;5076792;28;20035;-69
2021/12/23 08:49:10;;;;;;;47.13;21.90;;;3.50;99.90;;;;;;5059396;28;20055;-69
2021/12/23 08:51:37;;;;;;;42.05;22.15;;;3.60;99.90;;;;;;5059345;28;20068;-69
2021/12/23 08:54:04;;;;;;;45.90;22.98;;;3.30;99.90;;;;;;5076057;28;20028;-70
2021/12/23 08:56:30;;;;;;;45.75;22.85;;;3.20;99.90;;;;;;5075932;28;20025;-69
2021/12/23 08:58:56;;;;;;;46.13;22.27;;;3.30;99.90;;;;;;5075959;28;20056;-69
2021/12/23 09:01:23;;;;;;;45.00;22.73;;;3.30;99.90;;;;;;5076618;28;20056;-69
2021/12/23 09:03:49;;;;;;;45.70;22.42;;;3.30;99.90;;;;;;5076679;28;20303;-70
2021/12/23 09:06:15;;;;;;;44.80;23.05;;;3.10;99.90;;;;;;5059143;28;20051;-69
2021/12/23 09:08:41;;;;;;;42.42;21.45;;;3.10;99.90;;;;;;5080301;28;20032;-71
2021/12/23 09:11:07;;;;;;;42.22;21.17;;;3.10;99.90;;;;;;5046703;28;20086;-68
2021/12/23 09:13:34;;;;;;;42.22;21.45;;;3.00;99.90;;;;;;5080585;28;20048;-69
2021/12/23 09:16:00;;;;;;;43.28;21.45;;;2.70;99.90;;;;;;5079700;28;20020;-69
2021/12/23 09:18:26;;;;;;;43.78;22.20;;;2.60;99.90;;;;;;5080343;28;20059;-69
2021/12/23 09:20:53;;;;;;;43.20;21.33;;;2.60;99.90;;;;;;5079451;28;20048;-68
2021/12/23 09:23:20;;;;;;;41.53;21.58;;;2.70;99.90;;;;;;5079347;28;20048;-68
2021/12/23 09:25:47;;;;;;;46.05;22.42;;;2.70;99.90;;;;;;5080076;28;20295;-68
2021/12/23 09:33:39;;;;;;;44.00;21.42;;;2.50;99.90;;;;;;5079717;28;20040;-69
2021/12/23 09:36:05;;;;;;;46.30;22.02;;;2.40;99.90;;;;;;5079635;28;20148;-69
2021/12/23 09:38:31;;;;;;;45.85;21.02;;;2.40;99.90;;;;;;5078984;28;20043;-68
2021/12/23 09:41:08;;;;;;;43.85;21.80;;;2.40;99.90;;;;;;5078914;28;20058;-68
2021/12/23 09:43:36;;;;;;;43.47;21.70;;;2.60;99.90;;;;;;5079581;28;20024;-69
2021/12/23 09:46:03;;;;;;;43.25;21.63;;;2.90;99.90;;;;;;5079762;28;20039;-69
2021/12/23 09:48:30;;;;;;;44.03;22.00;;;3.20;99.90;;;;;;5079490;28;20036;-69
2021/12/23 09:51:00;;;;;;;42.10;21.40;;;4.20;99.90;;;;;;5079574;28;20359;-68
2021/12/23 09:53:26;;;;;;;42.83;21.85;;;4.20;99.90;;;;;;5079538;28;20037;-69
2021/12/23 09:55:52;;;;;;;38.70;20.40;;;4.30;99.90;;;;;;5078643;28;20039;-69
2021/12/23 09:58:19;;;;;;;41.63;21.58;;;3.90;99.90;;;;;;5079358;28;20029;-69
2021/12/23 10:00:46;;;;;;;38.92;20.25;;;3.80;99.90;;;;;;5078832;28;20112;-69
2021/12/23 10:03:14;;;;;;;38.13;20.55;;;3.70;99.90;;;;;;5079352;28;20090;-68
2021/12/23 10:05:40;;;;;;;44.80;20.58;;;3.50;99.90;;;;;;5079333;28;20160;-68
2021/12/23 10:08:07;;;;;;;37.67;20.63;;;3.50;99.90;;;;;;5079191;28;20112;-69
2021/12/23 10:10:45;;;;;;;39.28;20.30;;;3.70;99.90;;;;;;5078519;28;20024;-68
2021/12/23 10:38:04;;;;;;;35.40;18.83;;;4.80;99.90;;;;;;5078910;28;20059;-68
2021/12/23 10:40:31;;;;;;;38.33;19.83;;;5.00;99.90;;;;;;5078711;28;20028;-69
2021/12/23 10:42:57;;;;;;;39.15;20.25;;;5.00;99.90;;;;;;5061315;28;20362;-69
2021/12/23 10:45:23;;;;;;;36.05;19.92;;;5.00;99.90;;;;;;5078528;28;20032;-69
2021/12/23 10:50:36;;;;;;;35.42;18.15;;;5.00;99.90;;;;;;5078902;28;20430;-68
2021/12/23 10:53:11;;;;;;;33.83;18.48;;;4.80;99.90;;;;;;5077753;28;20166;-67
2021/12/23 10:58:23;;;;;;;34.60;19.58;;;4.70;99.90;;;;;;5078675;28;20423;-69
2021/12/23 11:00:56;;;;;;;35.33;19.27;;;4.60;99.90;;;;;;5077570;28;20028;-70
2021/12/23 11:03:41;;;;;;;34.15;18.65;;;4.50;99.90;;;;;;5078365;28;20024;-68
2021/12/23 11:08:53;;;;;;;35.58;18.35;;;4.60;99.90;;;;;;5078111;28;20284;-66
2021/12/23 11:36:33;;;;;;;30.90;17.10;;;5.10;99.90;;;;;;5077705;28;20056;-67
2021/12/23 11:39:09;;;;;;;32.70;18.20;;;5.20;99.90;;;;;;5077485;28;20282;-68
2021/12/23 11:41:39;;;;;;;32.35;18.65;;;5.10;99.90;;;;;;5077331;28;20033;-67
2021/12/23 11:44:06;;;;;;;34.33;17.40;;;5.10;99.90;;;;;;5076835;28;20037;-69
2021/12/23 11:46:38;;;;;;;31.60;17.85;;;5.00;99.90;;;;;;5077311;28;20037;-69
2021/12/23 11:49:08;;;;;;;37.67;19.27;;;5.10;99.90;;;;;;5077232;28;20032;-68
2021/12/23 11:51:47;;;;;;;34.65;19.25;;;5.10;99.90;;;;;;5077328;28;20057;-68
2021/12/23 11:54:22;;;;;;;29.63;17.85;;;5.10;99.90;;;;;;5076478;28;20085;-67
2021/12/23 11:56:58;;;;;;;32.33;19.13;;;4.90;99.90;;;;;;5077843;28;20033;-68
2021/12/23 11:59:25;;;;;;;30.35;17.77;;;4.90;99.90;;;;;;5077261;28;20103;-69
2021/12/23 12:01:54;;;;;;;30.92;18.23;;;5.00;99.90;;;;;;5076423;28;20135;-69
2021/12/23 12:04:30;;;;;;;31.10;18.23;;;5.10;99.90;;;;;;5059768;28;20295;-67
2021/12/23 12:06:57;;;;;;;36.35;18.45;;;5.00;99.90;;;;;;5077711;28;20289;-68
2021/12/23 12:09:31;;;;;;;37.67;18.92;;;4.90;99.90;;;;;;5059849;28;20399;-69
2021/12/23 12:12:07;;;;;;;33.83;18.58;;;5.00;99.90;;;;;;5076905;28;20206;-69
2021/12/23 12:14:38;;;;;;;37.00;19.38;;;5.20;99.90;;;;;;5077225;28;20114;-67
2021/12/23 12:17:23;;;;;;;30.50;18.70;;;5.40;99.90;;;;;;5076768;28;20028;-68
2021/12/23 12:20:23;;;;;;;31.55;18.35;;;5.30;99.90;;;;;;5077426;28;20036;-67
2021/12/23 12:23:10;;;;;;;32.30;18.48;;;5.40;99.90;;;;;;5076960;28;20028;-68
2021/12/23 12:25:44;;;;;;;34.05;18.85;;;5.40;99.90;;;;;;5076446;28;20391;-68
2021/12/23 12:28:10;;;;;;;33.60;18.73;;;5.30;99.90;;;;;;5077143;28;20036;-68
2021/12/23 12:30:40;;;;;;;31.75;18.75;;;5.40;99.90;;;;;;5076808;28;20103;-67
2021/12/23 12:33:18;;;;;;;32.85;18.02;;;5.60;99.90;;;;;;5076791;28;20039;-68
2021/12/23 12:36:08;;;;;;;31.83;17.98;;;5.60;99.90;;;;;;5076644;28;20040;-66
2021/12/23 12:39:06;;;;;;;35.78;19.00;;;5.50;99.90;;;;;;5076866;28;20043;-65
2021/12/23 12:41:36;;;;;;;32.75;18.55;;;5.50;99.90;;;;;;5039514;28;20097;-65
2021/12/23 12:44:43;;;;;;;32.65;19.10;;;5.70;99.90;;;;;;5082783;28;20051;-64
2021/12/23 12:47:21;;;;;;;34.65;19.67;;;5.70;99.90;;;;;;5067014;28;20311;-64
2021/12/23 12:49:50;;;;;;;32.38;17.80;;;5.60;99.90;;;;;;5082756;28;20310;-65
2021/12/23 12:52:24;;;;;;;32.15;17.92;;;5.60;99.90;;;;;;5083292;28;20044;-65
2021/12/23 12:55:00;;;;;;;31.38;17.40;;;5.60;99.90;;;;;;5083375;28;20035;-65
2021/12/23 12:57:49;;;;;;;29.85;18.30;;;5.60;99.90;;;;;;5082538;28;20120;-65
2021/12/23 13:00:38;;;;;;;32.72;18.35;;;5.60;99.90;;;;;;5083584;28;20047;-65
2021/12/23 13:03:17;;;;;;;32.92;19.67;;;5.60;99.90;;;;;;5083229;28;20036;-65
2021/12/23 13:05:49;;;;;;;31.35;18.83;;;5.60;99.90;;;;;;5083460;28;20028;-65
2021/12/23 13:08:29;;;;;;;33.53;19.98;;;5.60;99.90;;;;;;5083061;28;20109;-65
2021/12/23 13:11:23;;;;;;;32.40;19.63;;;5.80;99.90;;;;;;5083001;28;20043;-66
2021/12/23 13:14:19;;;;;;;32.55;19.55;;;5.80;99.90;;;;;;5063547;28;20037;-66
2021/12/23 13:16:52;;;;;;;35.53;19.60;;;5.90;99.90;;;;;;5083033;28;20145;-62
2021/12/23 13:19:18;;;;;;;34.45;19.90;;;6.00;99.90;;;;;;5082911;28;20046;-64
2021/12/23 13:21:50;;;;;;;33.15;19.35;;;6.10;99.90;;;;;;5082959;28;20025;-63
2021/12/23 13:24:21;;;;;;;;;;;6.20;99.90;;;;;;5083559;28;20330;-64
2021/12/23 13:26:48;;;;;;;32.95;19.13;;;6.20;99.90;;;;;;5082874;28;19981;-64
2021/12/23 13:29:15;;;;;;;31.10;18.05;;;6.10;99.90;;;;;;5082844;28;20086;-62
2021/12/23 13:31:45;;;;;;;38.30;18.88;;;6.00;99.90;;;;;;5082960;28;20043;-63
2021/12/23 13:34:18;;;;;;;35.70;18.63;;;5.80;99.90;;;;;;5082754;28;20024;-65
2021/12/23 13:37:08;;;;;;;34.78;19.67;;;5.90;99.90;;;;;;5082957;28;20343;-64
2021/12/23 13:39:38;;;;;;;35.42;19.35;;;5.90;99.90;;;;;;5082823;28;20028;-63
2021/12/23 13:42:06;;;;;;;33.63;19.80;;;5.70;99.90;;;;;;5083294;28;20024;-62
2021/12/23 13:44:34;;;;;;;36.20;20.92;;;5.70;99.90;;;;;;5082758;28;20056;-64
2021/12/23 13:47:10;;;;;;;35.17;19.38;;;5.50;99.90;;;;;;5082021;28;20296;-65
2021/12/23 13:49:50;;;;;;;37.33;21.58;;;5.60;99.90;;;;;;5082757;28;20036;-64
2021/12/23 13:52:25;;;;;;;35.63;20.50;;;5.70;99.90;;;;;;5081497;28;20103;-64
2021/12/23 13:55:00;;;;;;;34.97;19.48;;;5.60;99.90;;;;;;5079604;28;20032;-65